Aldrich, Minnesota
Current Conditions -  °F | °C
As of 12:34 AM on Friday 28 Nov 2014 (Local Time) from KSAZ Reporting Station
Light Snow Light Snow  
Wind Chill: -6°   Ceiling: 4100
Heat Index:   Visibility: 3mi
Dew Point:   Wind: 5mph
Humidity: 92%   Direction: 120°ESE
Pressure: 30.13"   Gusts: NA
Location:  46.38°N, 94.94°W
Report Text: KSAZ 280634Z AUTO 12004KT 3SM -SN SCT008 BKN041 OVC070 M16/M17 A3013 RMK AO2
Loading
Personal Weather Stations






























Interactive Weather Map New forecast layout! Learn more

10-Day Weather Forecast

Advertisements
Track Severe Weather on mobile